Dobrodošli na spletni strani vremenske postaje Senovo. Vse informacije so informativnega značaja, saj vremenska postaja ni del državne mreže meteoroloških postaj. AKTUALNIH OBVESTIL NI.


Sneg/Led Od: 22-02-2018 00:00 Do: 23-02-2018 23:59 Opozorilo za: Sneg/Led Stopnja: Rumena info button
Veter Od: 22-02-2018 00:00 Do: 23:59 Opozorilo za: Veter Stopnja: Rumena info button

Pogled proti Armezu več informacij Pogled proti Armezu


Lisca več informacij Lisca


Radar strel več informacij blitzortung!


opozorilo za sneg/led več informacij rain snow radar


Obiščite še:

Template documentation
and downloads

And another site



Weather Underground, zgodovina - Tekstovno

Dnevni povzetek za Januar 27, 2018 Enote:  Obe    Angleško   Metrično
« Predhodni Dan
Naslednji Dan »
Dnevni Tedenski Mesečni Letni Po meri
  Višja: Nižja: Povprečje:
Temperatura: TemperatureC °F /  -17.8 °C -0.5 °F /  -18.1 °C 2.6 °F /  -16.3 °C
Točka rosišča: DewpointC °F /  -17.8 °C -1.9 °F /  -18.8 °C 0.4 °F /  -17.6 °C
Vlažnost: Humidity % 75 % 85 %
Hitrost vetra: WindSpeedKMH mph /  0 km/h - 3.2 mph /  5.1 km/h
Sunki vetra: WindSpeedGustKMH mph /  0 km/h - -
Veter:- - SE
Zračni tlak: PressurehPa in /  0 hPa 1021.9 in /  34601.5 hPa -
Padavine: 0.0 in /  0 mm    
Historical Graphs
 
 
Tabelarni podarki za Januar 27, 2018
Čas Temperatura Točka rosišča Zračni tlak Veter Hitrost vetra Sunki vetra Vlažnost Intenziteta padavin (urna)
TemperatureC °F /  -17.8 °C DewpointC °F /  -17.8 °C PressurehPa in /  0 hPa Calm     Humidity % HourlyPrecipMM in /  0 mm
00:00 1.3 °F /  -17.1 °C -1.4 °F /  -18.6 °C 1021.9 in /  34601.5 hPa NNW 0.6 mph /  1 km/h 4.3 mph /  6.9 km/h 82 % 0.0 in /  0 mm
00:05 1.2 °F /  -17.1 °C -1.6 °F /  -18.7 °C 1021.9 in /  34601.5 hPa NW 0.2 mph /  0.3 km/h 4.0 mph /  6.4 km/h 82 % 0.0 in /  0 mm
00:10 1.2 °F /  -17.1 °C -1.4 °F /  -18.6 °C 1021.9 in /  34601.5 hPa NW 0.2 mph /  0.3 km/h 4.0 mph /  6.4 km/h 83 % 0.0 in /  0 mm
00:15 1.1 °F /  -17.2 °C -1.4 °F /  -18.6 °C 1022.9 in /  34635.4 hPa Calm     83 % 0.0 in /  0 mm
00:20 1.1 °F /  -17.2 °C -1.4 °F /  -18.6 °C 1022.9 in /  34635.4 hPa Calm     83 % 0.0 in /  0 mm
00:25 1.0 °F /  -17.2 °C -1.6 °F /  -18.7 °C 1022.9 in /  34635.4 hPa NW 0.2 mph /  0.3 km/h 2.6 mph /  4.2 km/h 83 % 0.0 in /  0 mm
00:30 1.0 °F /  -17.2 °C -1.6 °F /  -18.7 °C 1022.9 in /  34635.4 hPa NW 0.3 mph /  0.5 km/h 2.6 mph /  4.2 km/h 83 % 0.0 in /  0 mm
00:35 0.9 °F /  -17.3 °C -1.5 °F /  -18.6 °C 1022.9 in /  34635.4 hPa NW 0.2 mph /  0.3 km/h 1.4 mph /  2.3 km/h 84 % 0.0 in /  0 mm
00:40 0.9 °F /  -17.3 °C -1.5 °F /  -18.6 °C 1022.9 in /  34635.4 hPa Calm     84 % 0.0 in /  0 mm
00:45 0.9 °F /  -17.3 °C -1.5 °F /  -18.6 °C 1023.9 in /  34669.3 hPa Calm     84 % 0.0 in /  0 mm
00:50 0.9 °F /  -17.3 °C -1.5 °F /  -18.6 °C 1023.9 in /  34669.3 hPa NW 0.3 mph /  0.5 km/h 4.0 mph /  6.4 km/h 84 % 0.0 in /  0 mm
00:55 0.9 °F /  -17.3 °C -1.5 °F /  -18.6 °C 1023.9 in /  34669.3 hPa NW 0.6 mph /  1 km/h 4.0 mph /  6.4 km/h 84 % 0.0 in /  0 mm
01:00 0.9 °F /  -17.3 °C -1.3 °F /  -18.5 °C 1022.9 in /  34635.4 hPa NW 0.5 mph /  0.8 km/h 4.0 mph /  6.4 km/h 85 % 0.0 in /  0 mm
01:05 1.0 °F /  -17.2 °C -1.2 °F /  -18.4 °C 1022.9 in /  34635.4 hPa Calm     85 % 0.0 in /  0 mm
01:10 1.1 °F /  -17.2 °C -1.2 °F /  -18.4 °C 1022.9 in /  34635.4 hPa Calm     85 % 0.0 in /  0 mm
01:15 1.1 °F /  -17.2 °C -1.2 °F /  -18.4 °C 1022.9 in /  34635.4 hPa Calm     85 % 0.0 in /  0 mm
01:20 1.2 °F /  -17.1 °C -1.1 °F /  -18.4 °C 1022.9 in /  34635.4 hPa Calm     85 % 0.0 in /  0 mm
01:25 1.3 °F /  -17.1 °C -0.9 °F /  -18.3 °C 1022.9 in /  34635.4 hPa Calm     85 % 0.0 in /  0 mm
01:30 1.4 °F /  -17 °C -0.7 °F /  -18.2 °C 1022.9 in /  34635.4 hPa Calm     86 % 0.0 in /  0 mm
01:35 1.4 °F /  -17 °C -0.7 °F /  -18.2 °C 1022.9 in /  34635.4 hPa Calm     86 % 0.0 in /  0 mm
01:40 1.4 °F /  -17 °C -0.7 °F /  -18.2 °C 1022.9 in /  34635.4 hPa Calm     86 % 0.0 in /  0 mm
01:45 1.5 °F /  -16.9 °C -0.6 °F /  -18.1 °C 1022.9 in /  34635.4 hPa Calm     86 % 0.0 in /  0 mm
01:50 1.6 °F /  -16.9 °C -0.3 °F /  -17.9 °C 1022.9 in /  34635.4 hPa Calm     87 % 0.0 in /  0 mm
01:55 1.6 °F /  -16.9 °C -0.3 °F /  -17.9 °C 1022.9 in /  34635.4 hPa Calm     87 % 0.0 in /  0 mm
02:00 1.6 °F /  -16.9 °C -0.3 °F /  -17.9 °C 1022.9 in /  34635.4 hPa WNW 0.3 mph /  0.5 km/h 3.2 mph /  5.1 km/h 87 % 0.0 in /  0 mm
02:05 1.6 °F /  -16.9 °C -0.3 °F /  -17.9 °C 1022.9 in /  34635.4 hPa WNW 0.3 mph /  0.5 km/h 3.2 mph /  5.1 km/h 87 % 0.0 in /  0 mm
02:10 1.7 °F /  -16.8 °C -0.2 °F /  -17.9 °C 1022.9 in /  34635.4 hPa WSW 0.5 mph /  0.8 km/h 4.0 mph /  6.4 km/h 87 % 0.0 in /  0 mm
02:15 1.7 °F /  -16.8 °C -0.2 °F /  -17.9 °C 1022.9 in /  34635.4 hPa WSW 0.5 mph /  0.8 km/h 4.0 mph /  6.4 km/h 87 % 0.0 in /  0 mm
02:20 1.7 °F /  -16.8 °C -0.1 °F /  -17.8 °C 1022.9 in /  34635.4 hPa North 0.2 mph /  0.3 km/h   88 % 0.0 in /  0 mm
02:25 1.8 °F /  -16.8 °C 0.0 °F /  -17.8 °C 1022.9 in /  34635.4 hPa Calm     88 % 0.0 in /  0 mm
02:30 2.0 °F /  -16.7 °C 0.1 °F /  -17.7 °C 1022.9 in /  34635.4 hPa Calm     87 % 0.0 in /  0 mm
02:35 2.2 °F /  -16.6 °C 0.4 °F /  -17.6 °C 1022.9 in /  34635.4 hPa ESE 0.3 mph /  0.5 km/h 4.7 mph /  7.6 km/h 88 % 0.0 in /  0 mm
02:40 2.4 °F /  -16.4 °C 0.6 °F /  -17.4 °C 1022.9 in /  34635.4 hPa South 1.9 mph /  3.1 km/h 5.0 mph /  8 km/h 88 % 0.0 in /  0 mm
02:45 2.5 °F /  -16.4 °C 0.7 °F /  -17.4 °C 1022.9 in /  34635.4 hPa SSW 2.4 mph /  3.9 km/h 5.0 mph /  8 km/h 88 % 0.0 in /  0 mm
02:50 2.6 °F /  -16.3 °C 0.8 °F /  -17.3 °C 1022.9 in /  34635.4 hPa SW 1.1 mph /  1.8 km/h 4.7 mph /  7.6 km/h 88 % 0.0 in /  0 mm
02:55 2.6 °F /  -16.3 °C 0.8 °F /  -17.3 °C 1022.9 in /  34635.4 hPa SW 0.6 mph /  1 km/h 4.3 mph /  6.9 km/h 88 % 0.0 in /  0 mm
03:00 2.6 °F /  -16.3 °C 0.9 °F /  -17.3 °C 1022.9 in /  34635.4 hPa Calm     89 % 0.0 in /  0 mm
03:05 2.5 °F /  -16.4 °C 0.9 °F /  -17.3 °C 1022.9 in /  34635.4 hPa Calm   4.3 mph /  6.9 km/h 89 % 0.0 in /  0 mm
03:10 2.3 °F /  -16.5 °C 0.7 °F /  -17.4 °C 1022.9 in /  34635.4 hPa WSW 1.0 mph /  1.6 km/h 5.0 mph /  8 km/h 89 % 0.0 in /  0 mm
03:15 2.2 °F /  -16.6 °C 0.6 °F /  -17.4 °C 1022.9 in /  34635.4 hPa West 1.6 mph /  2.6 km/h 5.0 mph /  8 km/h 89 % 0.0 in /  0 mm
03:20 2.1 °F /  -16.6 °C 0.5 °F /  -17.5 °C 1022.9 in /  34635.4 hPa NW 0.5 mph /  0.8 km/h 3.5 mph /  5.6 km/h 89 % 0.0 in /  0 mm
03:25 2.0 °F /  -16.7 °C 0.4 °F /  -17.6 °C 1022.9 in /  34635.4 hPa Calm     89 % 0.0 in /  0 mm
03:30 1.9 °F /  -16.7 °C 0.3 °F /  -17.6 °C 1022.9 in /  34635.4 hPa Calm     89 % 0.0 in /  0 mm
03:35 1.8 °F /  -16.8 °C 0.2 °F /  -17.7 °C 1022.9 in /  34635.4 hPa NW 0.2 mph /  0.3 km/h 2.1 mph /  3.4 km/h 89 % 0.0 in /  0 mm
03:40 1.7 °F /  -16.8 °C 0.1 °F /  -17.7 °C 1023.9 in /  34669.3 hPa WNW 0.3 mph /  0.5 km/h 3.2 mph /  5.1 km/h 89 % 0.0 in /  0 mm
03:45 1.6 °F /  -16.9 °C 0.0 °F /  -17.8 °C 1023.9 in /  34669.3 hPa NW 0.6 mph /  1 km/h 4.3 mph /  6.9 km/h 89 % 0.0 in /  0 mm
03:50 1.5 °F /  -16.9 °C -0.1 °F /  -17.8 °C 1023.9 in /  34669.3 hPa NNW 0.5 mph /  0.8 km/h 4.3 mph /  6.9 km/h 89 % 0.0 in /  0 mm
03:55 1.5 °F /  -16.9 °C -0.1 °F /  -17.8 °C 1022.9 in /  34635.4 hPa Calm     89 % 0.0 in /  0 mm
04:00 1.4 °F /  -17 °C -0.2 °F /  -17.9 °C 1022.9 in /  34635.4 hPa Calm     89 % 0.0 in /  0 mm
04:05 1.4 °F /  -17 °C -0.2 °F /  -17.9 °C 1022.9 in /  34635.4 hPa Calm     89 % 0.0 in /  0 mm
04:10 1.3 °F /  -17.1 °C -0.3 °F /  -17.9 °C 1021.9 in /  34601.5 hPa Calm     89 % 0.0 in /  0 mm
04:15 1.3 °F /  -17.1 °C -0.3 °F /  -17.9 °C 1021.9 in /  34601.5 hPa Calm     89 % 0.0 in /  0 mm
04:20 1.2 °F /  -17.1 °C -0.4 °F /  -18 °C 1021.9 in /  34601.5 hPa Calm     89 % 0.0 in /  0 mm
04:25 1.1 °F /  -17.2 °C -0.5 °F /  -18.1 °C 1022.9 in /  34635.4 hPa Calm     89 % 0.0 in /  0 mm
04:30 1.0 °F /  -17.2 °C -0.6 °F /  -18.1 °C 1022.9 in /  34635.4 hPa Calm     89 % 0.0 in /  0 mm
04:35 1.0 °F /  -17.2 °C -0.6 °F /  -18.1 °C 1022.9 in /  34635.4 hPa Calm     89 % 0.0 in /  0 mm
04:40 0.9 °F /  -17.3 °C -0.7 °F /  -18.2 °C 1022.9 in /  34635.4 hPa Calm     89 % 0.0 in /  0 mm
04:45 0.9 °F /  -17.3 °C -0.7 °F /  -18.2 °C 1022.9 in /  34635.4 hPa Calm     89 % 0.0 in /  0 mm
04:50 0.8 °F /  -17.3 °C -0.8 °F /  -18.2 °C 1022.9 in /  34635.4 hPa Calm     89 % 0.0 in /  0 mm
04:55 0.7 °F /  -17.4 °C -0.9 °F /  -18.3 °C 1023.9 in /  34669.3 hPa Calm     89 % 0.0 in /  0 mm
05:00 0.6 °F /  -17.4 °C -1.0 °F /  -18.3 °C 1023.9 in /  34669.3 hPa Calm     89 % 0.0 in /  0 mm
05:05 0.6 °F /  -17.4 °C -1.0 °F /  -18.3 °C 1023.9 in /  34669.3 hPa Calm     89 % 0.0 in /  0 mm
05:10 0.5 °F /  -17.5 °C -1.1 °F /  -18.4 °C 1023.9 in /  34669.3 hPa Calm     89 % 0.0 in /  0 mm
05:15 0.4 °F /  -17.6 °C -1.2 °F /  -18.4 °C 1023.9 in /  34669.3 hPa Calm     89 % 0.0 in /  0 mm
05:20 0.4 °F /  -17.6 °C -1.2 °F /  -18.4 °C 1023.9 in /  34669.3 hPa Calm     89 % 0.0 in /  0 mm
05:25 0.4 °F /  -17.6 °C -1.2 °F /  -18.4 °C 1023.9 in /  34669.3 hPa Calm     89 % 0.0 in /  0 mm
05:30 0.4 °F /  -17.6 °C -1.1 °F /  -18.4 °C 1023.9 in /  34669.3 hPa Calm     90 % 0.0 in /  0 mm
05:35 0.3 °F /  -17.6 °C -1.2 °F /  -18.4 °C 1023.9 in /  34669.3 hPa Calm     90 % 0.0 in /  0 mm
05:41 0.4 °F /  -17.6 °C -1.1 °F /  -18.4 °C 1023.9 in /  34669.3 hPa Calm     90 % 0.0 in /  0 mm
05:46 0.4 °F /  -17.6 °C -1.1 °F /  -18.4 °C 1023.9 in /  34669.3 hPa Calm     90 % 0.0 in /  0 mm
05:51 0.4 °F /  -17.6 °C -1.1 °F /  -18.4 °C 1023.9 in /  34669.3 hPa Calm     90 % 0.0 in /  0 mm
05:56 0.3 °F /  -17.6 °C -1.2 °F /  -18.4 °C 1023.9 in /  34669.3 hPa Calm     90 % 0.0 in /  0 mm
06:01 0.3 °F /  -17.6 °C -1.2 °F /  -18.4 °C 1023.9 in /  34669.3 hPa Calm     90 % 0.0 in /  0 mm
06:06 0.3 °F /  -17.6 °C -1.2 °F /  -18.4 °C 1023.9 in /  34669.3 hPa Calm     90 % 0.0 in /  0 mm
06:11 0.3 °F /  -17.6 °C -1.2 °F /  -18.4 °C 1023.9 in /  34669.3 hPa Calm     90 % 0.0 in /  0 mm
06:16 0.3 °F /  -17.6 °C -1.2 °F /  -18.4 °C 1023.9 in /  34669.3 hPa Calm     90 % 0.0 in /  0 mm
06:21 0.2 °F /  -17.7 °C -1.2 °F /  -18.4 °C 1023.9 in /  34669.3 hPa Calm     90 % 0.0 in /  0 mm
06:26 0.2 °F /  -17.7 °C -1.2 °F /  -18.4 °C 1024.9 in /  34703.1 hPa Calm     90 % 0.0 in /  0 mm
06:31 0.1 °F /  -17.7 °C -1.3 °F /  -18.5 °C 1024.9 in /  34703.1 hPa Calm     90 % 0.0 in /  0 mm
06:36 0.1 °F /  -17.7 °C -1.3 °F /  -18.5 °C 1024.9 in /  34703.1 hPa Calm     90 % 0.0 in /  0 mm
06:41 0.0 °F /  -17.8 °C -1.4 °F /  -18.6 °C 1024.9 in /  34703.1 hPa Calm     90 % 0.0 in /  0 mm
06:46 0.0 °F /  -17.8 °C -1.4 °F /  -18.6 °C 1024.9 in /  34703.1 hPa Calm     90 % 0.0 in /  0 mm
06:51 0.0 °F /  -17.8 °C -1.4 °F /  -18.6 °C 1024.9 in /  34703.1 hPa Calm     90 % 0.0 in /  0 mm
06:56 -0.1 °F /  -17.8 °C -1.6 °F /  -18.7 °C 1024.9 in /  34703.1 hPa SW 0.3 mph /  0.5 km/h 4.0 mph /  6.4 km/h 90 % 0.0 in /  0 mm
07:01 -0.2 °F /  -17.9 °C -1.7 °F /  -18.7 °C 1024.9 in /  34703.1 hPa SW 0.3 mph /  0.5 km/h 4.0 mph /  6.4 km/h 90 % 0.0 in /  0 mm
07:06 -0.3 °F /  -17.9 °C -1.7 °F /  -18.7 °C 1024.9 in /  34703.1 hPa Calm     90 % 0.0 in /  0 mm
07:11 -0.4 °F /  -18 °C -1.8 °F /  -18.8 °C 1024.9 in /  34703.1 hPa Calm     90 % 0.0 in /  0 mm
07:16 -0.3 °F /  -17.9 °C -1.7 °F /  -18.7 °C 1024.9 in /  34703.1 hPa Calm     90 % 0.0 in /  0 mm
07:21 -0.4 °F /  -18 °C -1.8 °F /  -18.8 °C 1024.9 in /  34703.1 hPa Calm     90 % 0.0 in /  0 mm
07:26 -0.4 °F /  -18 °C -1.8 °F /  -18.8 °C 1024.9 in /  34703.1 hPa Calm     90 % 0.0 in /  0 mm
07:31 -0.5 °F /  -18.1 °C -1.9 °F /  -18.8 °C 1024.9 in /  34703.1 hPa Calm     90 % 0.0 in /  0 mm
07:36 -0.4 °F /  -18 °C -1.8 °F /  -18.8 °C 1024.9 in /  34703.1 hPa Calm     90 % 0.0 in /  0 mm
07:41 -0.5 °F /  -18.1 °C -1.9 °F /  -18.8 °C 1024.9 in /  34703.1 hPa Calm     90 % 0.0 in /  0 mm
07:46 -0.5 °F /  -18.1 °C -1.9 °F /  -18.8 °C 1024.9 in /  34703.1 hPa Calm     90 % 0.0 in /  0 mm
07:51 -0.5 °F /  -18.1 °C -1.9 °F /  -18.8 °C 1024.9 in /  34703.1 hPa Calm     90 % 0.0 in /  0 mm
07:56 -0.5 °F /  -18.1 °C -1.9 °F /  -18.8 °C 1026.0 in /  34740.4 hPa Calm     90 % 0.0 in /  0 mm
08:01 -0.5 °F /  -18.1 °C -1.9 °F /  -18.8 °C 1026.0 in /  34740.4 hPa Calm     90 % 0.0 in /  0 mm
08:06 -0.5 °F /  -18.1 °C -1.9 °F /  -18.8 °C 1026.0 in /  34740.4 hPa Calm     90 % 0.0 in /  0 mm
08:11 -0.5 °F /  -18.1 °C -1.8 °F /  -18.8 °C 1026.0 in /  34740.4 hPa Calm     91 % 0.0 in /  0 mm
08:16 -0.5 °F /  -18.1 °C -1.8 °F /  -18.8 °C 1026.0 in /  34740.4 hPa Calm     91 % 0.0 in /  0 mm
08:21 -0.4 °F /  -18 °C -1.7 °F /  -18.7 °C 1026.0 in /  34740.4 hPa Calm     91 % 0.0 in /  0 mm
08:26 -0.4 °F /  -18 °C -1.7 °F /  -18.7 °C 1026.0 in /  34740.4 hPa Calm     91 % 0.0 in /  0 mm
08:31 -0.2 °F /  -17.9 °C -1.5 °F /  -18.6 °C 1026.0 in /  34740.4 hPa Calm     91 % 0.0 in /  0 mm
08:35 -0.1 °F /  -17.8 °C -1.4 °F /  -18.6 °C 1026.0 in /  34740.4 hPa Calm     91 % 0.0 in /  0 mm
08:40 0.0 °F /  -17.8 °C -1.3 °F /  -18.5 °C 1027.0 in /  34774.2 hPa Calm     91 % 0.0 in /  0 mm
08:45 0.1 °F /  -17.7 °C -1.2 °F /  -18.4 °C 1027.0 in /  34774.2 hPa Calm     91 % 0.0 in /  0 mm
08:50 0.2 °F /  -17.7 °C -0.9 °F /  -18.3 °C 1027.0 in /  34774.2 hPa Calm     92 % 0.0 in /  0 mm
08:55 0.3 °F /  -17.6 °C -0.8 °F /  -18.2 °C 1027.0 in /  34774.2 hPa Calm     92 % 0.0 in /  0 mm
09:00 0.4 °F /  -17.6 °C -0.7 °F /  -18.2 °C 1027.0 in /  34774.2 hPa Calm     92 % 0.0 in /  0 mm
09:05 0.5 °F /  -17.5 °C -0.7 °F /  -18.2 °C 1027.0 in /  34774.2 hPa Calm     92 % 0.0 in /  0 mm
09:10 0.6 °F /  -17.4 °C -0.6 °F /  -18.1 °C 1027.0 in /  34774.2 hPa Calm     92 % 0.0 in /  0 mm
09:15 0.8 °F /  -17.3 °C -0.3 °F /  -17.9 °C 1027.0 in /  34774.2 hPa Calm     92 % 0.0 in /  0 mm
09:21 0.9 °F /  -17.3 °C -0.1 °F /  -17.8 °C 1027.0 in /  34774.2 hPa Calm     93 % 0.0 in /  0 mm
09:26 1.1 °F /  -17.2 °C 0.1 °F /  -17.7 °C 1027.0 in /  34774.2 hPa Calm     93 % 0.0 in /  0 mm
09:31 1.3 °F /  -17.1 °C 0.3 °F /  -17.6 °C 1027.0 in /  34774.2 hPa Calm     93 % 0.0 in /  0 mm
09:36 1.6 °F /  -16.9 °C 0.6 °F /  -17.4 °C 1027.0 in /  34774.2 hPa Calm     93 % 0.0 in /  0 mm
09:41 1.8 °F /  -16.8 °C 0.8 °F /  -17.3 °C 1026.0 in /  34740.4 hPa SW 0.3 mph /  0.5 km/h 2.6 mph /  4.2 km/h 93 % 0.0 in /  0 mm
09:46 2.0 °F /  -16.7 °C 1.0 °F /  -17.2 °C 1026.0 in /  34740.4 hPa SW 0.8 mph /  1.3 km/h 4.0 mph /  6.4 km/h 93 % 0.0 in /  0 mm
09:51 2.4 °F /  -16.4 °C 1.4 °F /  -17 °C 1026.0 in /  34740.4 hPa SSW 1.3 mph /  2.1 km/h 4.0 mph /  6.4 km/h 93 % 0.0 in /  0 mm
09:56 2.9 °F /  -16.2 °C 2.1 °F /  -16.6 °C 1027.0 in /  34774.2 hPa SE 1.4 mph /  2.3 km/h 10.5 mph /  16.9 km/h 94 % 0.0 in /  0 mm
10:01 3.4 °F /  -15.9 °C 2.5 °F /  -16.4 °C 1027.0 in /  34774.2 hPa East 2.6 mph /  4.2 km/h 10.5 mph /  16.9 km/h 94 % 0.0 in /  0 mm
10:06 3.7 °F /  -15.7 °C 2.8 °F /  -16.2 °C 1027.0 in /  34774.2 hPa ESE 3.9 mph /  6.3 km/h 10.5 mph /  16.9 km/h 94 % 0.0 in /  0 mm
10:11 4.1 °F /  -15.5 °C 3.2 °F /  -16 °C 1027.0 in /  34774.2 hPa ESE 4.2 mph /  6.8 km/h 6.9 mph /  11.1 km/h 94 % 0.0 in /  0 mm
10:16 4.4 °F /  -15.3 °C 3.5 °F /  -15.8 °C 1027.0 in /  34774.2 hPa ESE 5.0 mph /  8 km/h 9.0 mph /  14.5 km/h 94 % 0.0 in /  0 mm
10:21 4.7 °F /  -15.2 °C 3.8 °F /  -15.7 °C 1027.0 in /  34774.2 hPa ESE 5.3 mph /  8.5 km/h 9.0 mph /  14.5 km/h 94 % 0.0 in /  0 mm
10:26 5.0 °F /  -15 °C 4.1 °F /  -15.5 °C 1028.0 in /  34808.1 hPa East 5.8 mph /  9.3 km/h 10.5 mph /  16.9 km/h 94 % 0.0 in /  0 mm
10:31 5.0 °F /  -15 °C 4.1 °F /  -15.5 °C 1028.0 in /  34808.1 hPa East 6.4 mph /  10.3 km/h 11.6 mph /  18.7 km/h 94 % 0.0 in /  0 mm
10:36 5.1 °F /  -14.9 °C 4.2 °F /  -15.4 °C 1028.0 in /  34808.1 hPa ENE 6.9 mph /  11.1 km/h 12.6 mph /  20.3 km/h 94 % 0.0 in /  0 mm
10:41 5.3 °F /  -14.8 °C 4.4 °F /  -15.3 °C 1028.0 in /  34808.1 hPa ENE 7.2 mph /  11.6 km/h 12.6 mph /  20.3 km/h 94 % 0.0 in /  0 mm
10:46 5.3 °F /  -14.8 °C 4.3 °F /  -15.4 °C 1028.0 in /  34808.1 hPa ENE 6.6 mph /  10.6 km/h 9.7 mph /  15.6 km/h 93 % 0.0 in /  0 mm
10:51 5.4 °F /  -14.8 °C 4.3 °F /  -15.4 °C 1028.0 in /  34808.1 hPa ENE 5.8 mph /  9.3 km/h 9.7 mph /  15.6 km/h 93 % 0.0 in /  0 mm
10:56 5.6 °F /  -14.7 °C 4.6 °F /  -15.2 °C 1028.0 in /  34808.1 hPa ENE 5.6 mph /  9 km/h 9.3 mph /  15 km/h 93 % 0.0 in /  0 mm
11:01 5.6 °F /  -14.7 °C 4.6 °F /  -15.2 °C 1028.0 in /  34808.1 hPa East 5.5 mph /  8.9 km/h 9.3 mph /  15 km/h 93 % 0.0 in /  0 mm
11:06 5.7 °F /  -14.6 °C 4.5 °F /  -15.3 °C 1028.0 in /  34808.1 hPa East 5.3 mph /  8.5 km/h 9.0 mph /  14.5 km/h 92 % 0.0 in /  0 mm
11:11 5.9 °F /  -14.5 °C 4.7 °F /  -15.2 °C 1028.0 in /  34808.1 hPa ENE 5.6 mph /  9 km/h 11.6 mph /  18.7 km/h 92 % 0.0 in /  0 mm
11:16 6.0 °F /  -14.4 °C 4.7 °F /  -15.2 °C 1028.0 in /  34808.1 hPa ENE 7.2 mph /  11.6 km/h 11.6 mph /  18.7 km/h 91 % 0.0 in /  0 mm
11:21 6.1 °F /  -14.4 °C 4.7 °F /  -15.2 °C 1028.0 in /  34808.1 hPa ENE 7.9 mph /  12.7 km/h 10.5 mph /  16.9 km/h 91 % 0.0 in /  0 mm
11:26 6.4 °F /  -14.2 °C 4.9 °F /  -15.1 °C 1028.0 in /  34808.1 hPa ENE 7.7 mph /  12.4 km/h 11.9 mph /  19.2 km/h 90 % 0.0 in /  0 mm
11:31 6.5 °F /  -14.2 °C 5.0 °F /  -15 °C 1028.0 in /  34808.1 hPa ENE 8.0 mph /  12.9 km/h 11.9 mph /  19.2 km/h 90 % 0.0 in /  0 mm
11:36 6.6 °F /  -14.1 °C 4.9 °F /  -15.1 °C 1028.0 in /  34808.1 hPa ENE 7.9 mph /  12.7 km/h 10.5 mph /  16.9 km/h 89 % 0.0 in /  0 mm
11:41 6.5 °F /  -14.2 °C 4.7 °F /  -15.2 °C 1028.0 in /  34808.1 hPa ENE 8.5 mph /  13.7 km/h 13.0 mph /  20.9 km/h 88 % 0.0 in /  0 mm
11:46 6.4 °F /  -14.2 °C 4.4 °F /  -15.3 °C 1028.0 in /  34808.1 hPa ENE 10.5 mph /  16.9 km/h 16.6 mph /  26.7 km/h 87 % 0.0 in /  0 mm
11:51 6.3 °F /  -14.3 °C 4.1 °F /  -15.5 °C 1028.0 in /  34808.1 hPa ENE 10.8 mph /  17.4 km/h 16.6 mph /  26.7 km/h 86 % 0.0 in /  0 mm
11:56 6.3 °F /  -14.3 °C 4.1 °F /  -15.5 °C 1028.0 in /  34808.1 hPa ENE 10.9 mph /  17.5 km/h 16.6 mph /  26.7 km/h 86 % 0.0 in /  0 mm
12:01 6.2 °F /  -14.3 °C 3.9 °F /  -15.6 °C 1028.0 in /  34808.1 hPa ENE 10.8 mph /  17.4 km/h 16.6 mph /  26.7 km/h 85 % 0.0 in /  0 mm
12:06 6.1 °F /  -14.4 °C 3.6 °F /  -15.8 °C 1028.0 in /  34808.1 hPa ENE 10.5 mph /  16.9 km/h 15.4 mph /  24.8 km/h 84 % 0.0 in /  0 mm
12:11 6.2 °F /  -14.3 °C 3.7 °F /  -15.7 °C 1028.0 in /  34808.1 hPa ENE 10.8 mph /  17.4 km/h 15.8 mph /  25.4 km/h 84 % 0.0 in /  0 mm
12:16 6.3 °F /  -14.3 °C 3.6 °F /  -15.8 °C 1028.0 in /  34808.1 hPa ENE 10.8 mph /  17.4 km/h 16.6 mph /  26.7 km/h 83 % 0.0 in /  0 mm
12:21 6.4 °F /  -14.2 °C 3.7 °F /  -15.7 °C 1028.0 in /  34808.1 hPa ENE 10.1 mph /  16.3 km/h 16.6 mph /  26.7 km/h 83 % 0.0 in /  0 mm
12:26 6.5 °F /  -14.2 °C 3.7 °F /  -15.7 °C 1028.0 in /  34808.1 hPa ENE 10.1 mph /  16.3 km/h 14.0 mph /  22.5 km/h 82 % 0.0 in /  0 mm
12:31 6.4 °F /  -14.2 °C 3.6 °F /  -15.8 °C 1028.0 in /  34808.1 hPa ENE 10.0 mph /  16.1 km/h 13.7 mph /  22 km/h 82 % 0.0 in /  0 mm
12:36 6.4 °F /  -14.2 °C 3.4 °F /  -15.9 °C 1028.0 in /  34808.1 hPa East 9.5 mph /  15.3 km/h 14.0 mph /  22.5 km/h 81 % 0.0 in /  0 mm
12:41 6.5 °F /  -14.2 °C 3.3 °F /  -15.9 °C 1028.0 in /  34808.1 hPa ENE 9.5 mph /  15.3 km/h 14.0 mph /  22.5 km/h 80 % 0.0 in /  0 mm
12:46 6.5 °F /  -14.2 °C 3.3 °F /  -15.9 °C 1028.0 in /  34808.1 hPa ENE 9.3 mph /  15 km/h 15.8 mph /  25.4 km/h 80 % 0.0 in /  0 mm
12:51 6.5 °F /  -14.2 °C 3.1 °F /  -16.1 °C 1028.0 in /  34808.1 hPa ENE 9.5 mph /  15.3 km/h 15.8 mph /  25.4 km/h 79 % 0.0 in /  0 mm
12:56 6.4 °F /  -14.2 °C 3.0 °F /  -16.1 °C 1028.0 in /  34808.1 hPa ENE 10.0 mph /  16.1 km/h 14.8 mph /  23.8 km/h 79 % 0.0 in /  0 mm
13:01 6.5 °F /  -14.2 °C 2.9 °F /  -16.2 °C 1028.0 in /  34808.1 hPa ENE 11.1 mph /  17.9 km/h 15.4 mph /  24.8 km/h 78 % 0.0 in /  0 mm
13:07 6.5 °F /  -14.2 °C 2.9 °F /  -16.2 °C 1028.0 in /  34808.1 hPa ENE 10.9 mph /  17.5 km/h 15.4 mph /  24.8 km/h 78 % 0.0 in /  0 mm
13:12 6.5 °F /  -14.2 °C 2.8 °F /  -16.2 °C 1028.0 in /  34808.1 hPa ENE 9.5 mph /  15.3 km/h 13.7 mph /  22 km/h 77 % 0.0 in /  0 mm
13:17 6.5 °F /  -14.2 °C 2.8 °F /  -16.2 °C 1028.0 in /  34808.1 hPa ENE 9.7 mph /  15.6 km/h 14.8 mph /  23.8 km/h 77 % 0.0 in /  0 mm
13:22 6.5 °F /  -14.2 °C 2.8 °F /  -16.2 °C 1028.0 in /  34808.1 hPa ENE 10.8 mph /  17.4 km/h 16.9 mph /  27.2 km/h 77 % 0.0 in /  0 mm
13:27 6.5 °F /  -14.2 °C 2.8 °F /  -16.2 °C 1028.0 in /  34808.1 hPa NE 11.3 mph /  18.2 km/h 16.9 mph /  27.2 km/h 77 % 0.0 in /  0 mm
13:32 6.5 °F /  -14.2 °C 2.6 °F /  -16.3 °C 1028.0 in /  34808.1 hPa NE 10.6 mph /  17.1 km/h 17.7 mph /  28.5 km/h 76 % 0.0 in /  0 mm
13:37 6.5 °F /  -14.2 °C 2.6 °F /  -16.3 °C 1028.0 in /  34808.1 hPa NE 10.6 mph /  17.1 km/h 17.7 mph /  28.5 km/h 76 % 0.0 in /  0 mm
13:42 6.5 °F /  -14.2 °C 2.6 °F /  -16.3 °C 1028.0 in /  34808.1 hPa NE 10.8 mph /  17.4 km/h 16.3 mph /  26.2 km/h 76 % 0.0 in /  0 mm
13:47 6.4 °F /  -14.2 °C 2.5 °F /  -16.4 °C 1028.0 in /  34808.1 hPa NE 11.3 mph /  18.2 km/h 17.2 mph /  27.7 km/h 76 % 0.0 in /  0 mm
13:52 6.4 °F /  -14.2 °C 2.5 °F /  -16.4 °C 1028.0 in /  34808.1 hPa NE 11.7 mph /  18.8 km/h 17.2 mph /  27.7 km/h 76 % 0.0 in /  0 mm
13:57 6.4 °F /  -14.2 °C 2.5 °F /  -16.4 °C 1028.0 in /  34808.1 hPa NE 11.6 mph /  18.7 km/h 16.3 mph /  26.2 km/h 76 % 0.0 in /  0 mm
14:02 6.4 °F /  -14.2 °C 2.5 °F /  -16.4 °C 1028.0 in /  34808.1 hPa ENE 10.5 mph /  16.9 km/h 16.6 mph /  26.7 km/h 76 % 0.0 in /  0 mm
14:07 6.4 °F /  -14.2 °C 2.3 °F /  -16.5 °C 1028.0 in /  34808.1 hPa NE 10.1 mph /  16.3 km/h 16.6 mph /  26.7 km/h 75 % 0.0 in /  0 mm
14:12 6.4 °F /  -14.2 °C 2.3 °F /  -16.5 °C 1028.0 in /  34808.1 hPa NE 9.5 mph /  15.3 km/h 15.8 mph /  25.4 km/h 75 % 0.0 in /  0 mm
14:17 6.4 °F /  -14.2 °C 2.3 °F /  -16.5 °C 1028.0 in /  34808.1 hPa NE 9.3 mph /  15 km/h 16.6 mph /  26.7 km/h 75 % 0.0 in /  0 mm
14:22 6.4 °F /  -14.2 °C 2.3 °F /  -16.5 °C 1028.0 in /  34808.1 hPa NE 9.8 mph /  15.8 km/h 16.6 mph /  26.7 km/h 75 % 0.0 in /  0 mm
14:27 6.5 °F /  -14.2 °C 2.4 °F /  -16.4 °C 1028.0 in /  34808.1 hPa NE 8.5 mph /  13.7 km/h 12.2 mph /  19.6 km/h 75 % 0.0 in /  0 mm
14:32 6.5 °F /  -14.2 °C 2.4 °F /  -16.4 °C 1028.0 in /  34808.1 hPa ENE 8.8 mph /  14.2 km/h 16.6 mph /  26.7 km/h 75 % 0.0 in /  0 mm
14:37 6.4 °F /  -14.2 °C 2.3 °F /  -16.5 °C 1028.0 in /  34808.1 hPa NE 10.1 mph /  16.3 km/h 16.6 mph /  26.7 km/h 75 % 0.0 in /  0 mm
14:42 6.3 °F /  -14.3 °C 2.2 °F /  -16.6 °C 1028.0 in /  34808.1 hPa NE 10.9 mph /  17.5 km/h 17.7 mph /  28.5 km/h 75 % 0.0 in /  0 mm
14:47 6.1 °F /  -14.4 °C 2.0 °F /  -16.7 °C 1028.0 in /  34808.1 hPa NE 11.6 mph /  18.7 km/h 17.7 mph /  28.5 km/h 75 % 0.0 in /  0 mm
14:52 6.1 °F /  -14.4 °C 2.0 °F /  -16.7 °C 1028.0 in /  34808.1 hPa NE 10.8 mph /  17.4 km/h 17.2 mph /  27.7 km/h 75 % 0.0 in /  0 mm
14:57 6.0 °F /  -14.4 °C 1.9 °F /  -16.7 °C 1028.0 in /  34808.1 hPa NE 10.6 mph /  17.1 km/h 15.8 mph /  25.4 km/h 75 % 0.0 in /  0 mm
15:02 6.0 °F /  -14.4 °C 1.9 °F /  -16.7 °C 1028.0 in /  34808.1 hPa ENE 10.8 mph /  17.4 km/h 15.8 mph /  25.4 km/h 75 % 0.0 in /  0 mm
15:07 5.9 °F /  -14.5 °C 1.8 °F /  -16.8 °C 1028.0 in /  34808.1 hPa NE 11.1 mph /  17.9 km/h 16.3 mph /  26.2 km/h 75 % 0.0 in /  0 mm
15:12 5.8 °F /  -14.6 °C 1.7 °F /  -16.8 °C 1028.0 in /  34808.1 hPa NE 10.6 mph /  17.1 km/h 16.3 mph /  26.2 km/h 75 % 0.0 in /  0 mm
15:17 5.6 °F /  -14.7 °C 1.5 °F /  -16.9 °C 1028.0 in /  34808.1 hPa NE 9.3 mph /  15 km/h 14.0 mph /  22.5 km/h 75 % 0.0 in /  0 mm
15:22 5.6 °F /  -14.7 °C 1.5 °F /  -16.9 °C 1028.0 in /  34808.1 hPa NE 9.0 mph /  14.5 km/h 12.6 mph /  20.3 km/h 75 % 0.0 in /  0 mm
15:27 5.5 °F /  -14.7 °C 1.4 °F /  -17 °C 1029.0 in /  34841.9 hPa NE 8.4 mph /  13.5 km/h 12.2 mph /  19.6 km/h 75 % 0.0 in /  0 mm
15:32 5.4 °F /  -14.8 °C 1.3 °F /  -17.1 °C 1029.0 in /  34841.9 hPa NE 9.0 mph /  14.5 km/h 16.6 mph /  26.7 km/h 75 % 0.0 in /  0 mm
15:37 5.3 °F /  -14.8 °C 1.2 °F /  -17.1 °C 1029.0 in /  34841.9 hPa NE 9.7 mph /  15.6 km/h 16.6 mph /  26.7 km/h 75 % 0.0 in /  0 mm
15:42 5.1 °F /  -14.9 °C 1.1 °F /  -17.2 °C 1029.0 in /  34841.9 hPa NE 7.2 mph /  11.6 km/h 14.8 mph /  23.8 km/h 75 % 0.0 in /  0 mm
15:47 5.0 °F /  -15 °C 0.9 °F /  -17.3 °C 1029.0 in /  34841.9 hPa NE 6.3 mph /  10.1 km/h 11.6 mph /  18.7 km/h 75 % 0.0 in /  0 mm
15:52 5.0 °F /  -15 °C 0.9 °F /  -17.3 °C 1029.0 in /  34841.9 hPa NE 7.9 mph /  12.7 km/h 12.2 mph /  19.6 km/h 75 % 0.0 in /  0 mm
15:57 4.8 °F /  -15.1 °C 0.9 °F /  -17.3 °C 1030.0 in /  34875.8 hPa ENE 9.0 mph /  14.5 km/h 12.2 mph /  19.6 km/h 76 % 0.0 in /  0 mm
16:02 4.7 °F /  -15.2 °C 0.8 °F /  -17.3 °C 1030.0 in /  34875.8 hPa ENE 7.7 mph /  12.4 km/h 11.9 mph /  19.2 km/h 76 % 0.0 in /  0 mm
16:07 4.7 °F /  -15.2 °C 0.8 °F /  -17.3 °C 1030.0 in /  34875.8 hPa ENE 7.1 mph /  11.4 km/h 14.0 mph /  22.5 km/h 76 % 0.0 in /  0 mm
16:12 4.5 °F /  -15.3 °C 0.6 °F /  -17.4 °C 1029.0 in /  34841.9 hPa ENE 7.4 mph /  11.9 km/h 14.0 mph /  22.5 km/h 76 % 0.0 in /  0 mm
16:17 4.3 °F /  -15.4 °C 0.4 °F /  -17.6 °C 1029.0 in /  34841.9 hPa East 7.4 mph /  11.9 km/h 12.6 mph /  20.3 km/h 76 % 0.0 in /  0 mm
16:22 4.2 °F /  -15.4 °C 0.3 °F /  -17.6 °C 1029.0 in /  34841.9 hPa East 6.8 mph /  10.9 km/h 14.0 mph /  22.5 km/h 76 % 0.0 in /  0 mm
16:27 4.1 °F /  -15.5 °C 0.4 °F /  -17.6 °C 1029.0 in /  34841.9 hPa East 7.1 mph /  11.4 km/h 14.0 mph /  22.5 km/h 77 % 0.0 in /  0 mm
16:32 4.0 °F /  -15.6 °C 0.3 °F /  -17.6 °C 1029.0 in /  34841.9 hPa ENE 7.2 mph /  11.6 km/h 12.6 mph /  20.3 km/h 77 % 0.0 in /  0 mm
16:37 3.9 °F /  -15.6 °C 0.2 °F /  -17.7 °C 1029.0 in /  34841.9 hPa ENE 7.1 mph /  11.4 km/h 13.0 mph /  20.9 km/h 77 % 0.0 in /  0 mm
16:42 3.8 °F /  -15.7 °C 0.1 °F /  -17.7 °C 1029.0 in /  34841.9 hPa ENE 7.2 mph /  11.6 km/h 13.0 mph /  20.9 km/h 77 % 0.0 in /  0 mm
16:47 3.7 °F /  -15.7 °C 0.2 °F /  -17.7 °C 1029.0 in /  34841.9 hPa East 6.9 mph /  11.1 km/h 10.5 mph /  16.9 km/h 78 % 0.0 in /  0 mm
16:52 3.6 °F /  -15.8 °C 0.1 °F /  -17.7 °C 1029.0 in /  34841.9 hPa East 6.3 mph /  10.1 km/h 9.3 mph /  15 km/h 78 % 0.0 in /  0 mm
16:58 3.6 °F /  -15.8 °C 0.1 °F /  -17.7 °C 1030.0 in /  34875.8 hPa East 5.6 mph /  9 km/h 12.6 mph /  20.3 km/h 78 % 0.0 in /  0 mm
17:03 3.4 °F /  -15.9 °C -0.1 °F /  -17.8 °C 1030.0 in /  34875.8 hPa East 6.1 mph /  9.8 km/h 12.6 mph /  20.3 km/h 78 % 0.0 in /  0 mm
17:08 3.4 °F /  -15.9 °C -0.1 °F /  -17.8 °C 1030.0 in /  34875.8 hPa East 6.3 mph /  10.1 km/h 10.1 mph /  16.3 km/h 78 % 0.0 in /  0 mm
17:13 3.3 °F /  -15.9 °C 0.0 °F /  -17.8 °C 1030.0 in /  34875.8 hPa East 6.1 mph /  9.8 km/h 10.5 mph /  16.9 km/h 79 % 0.0 in /  0 mm
17:18 3.3 °F /  -15.9 °C 0.0 °F /  -17.8 °C 1030.0 in /  34875.8 hPa ENE 5.8 mph /  9.3 km/h 10.5 mph /  16.9 km/h 79 % 0.0 in /  0 mm
17:23 3.2 °F /  -16 °C -0.1 °F /  -17.8 °C 1030.0 in /  34875.8 hPa ENE 5.1 mph /  8.2 km/h 9.3 mph /  15 km/h 79 % 0.0 in /  0 mm
17:26 3.1 °F /  -16.1 °C -0.2 °F /  -17.9 °C 1031.0 in /  34909.7 hPa NE 5.0 mph /  8 km/h 9.3 mph /  15 km/h 79 % 0.0 in /  0 mm
17:31 3.1 °F /  -16.1 °C -0.2 °F /  -17.9 °C 1031.0 in /  34909.7 hPa NE 5.1 mph /  8.2 km/h 9.3 mph /  15 km/h 79 % 0.0 in /  0 mm
17:36 3.0 °F /  -16.1 °C -0.1 °F /  -17.8 °C 1031.0 in /  34909.7 hPa ENE 4.7 mph /  7.6 km/h 9.0 mph /  14.5 km/h 80 % 0.0 in /  0 mm
17:41 2.9 °F /  -16.2 °C -0.2 °F /  -17.9 °C 1031.0 in /  34909.7 hPa ENE 4.3 mph /  6.9 km/h 9.0 mph /  14.5 km/h 80 % 0.0 in /  0 mm
17:46 2.8 °F /  -16.2 °C -0.3 °F /  -17.9 °C 1031.0 in /  34909.7 hPa NE 4.0 mph /  6.4 km/h 6.1 mph /  9.8 km/h 80 % 0.0 in /  0 mm
17:51 2.8 °F /  -16.2 °C -0.1 °F /  -17.8 °C 1031.0 in /  34909.7 hPa NE 4.8 mph /  7.7 km/h 9.3 mph /  15 km/h 81 % 0.0 in /  0 mm
17:56 2.7 °F /  -16.3 °C -0.2 °F /  -17.9 °C 1031.0 in /  34909.7 hPa NNE 4.3 mph /  6.9 km/h 9.3 mph /  15 km/h 81 % 0.0 in /  0 mm
18:01 2.6 °F /  -16.3 °C -0.3 °F /  -17.9 °C 1031.0 in /  34909.7 hPa NNE 3.1 mph /  5 km/h 6.1 mph /  9.8 km/h 81 % 0.0 in /  0 mm
18:06 2.5 °F /  -16.4 °C -0.4 °F /  -18 °C 1031.0 in /  34909.7 hPa NNE 3.1 mph /  5 km/h 5.5 mph /  8.9 km/h 81 % 0.0 in /  0 mm
18:11 2.4 °F /  -16.4 °C -0.6 °F /  -18.1 °C 1031.0 in /  34909.7 hPa NNW 3.4 mph /  5.5 km/h 6.1 mph /  9.8 km/h 81 % 0.0 in /  0 mm
18:16 2.4 °F /  -16.4 °C -0.3 °F /  -17.9 °C 1031.0 in /  34909.7 hPa North 3.7 mph /  6 km/h 6.4 mph /  10.3 km/h 82 % 0.0 in /  0 mm
18:21 2.3 °F /  -16.5 °C -0.4 °F /  -18 °C 1031.0 in /  34909.7 hPa NNE 3.5 mph /  5.6 km/h 6.4 mph /  10.3 km/h 82 % 0.0 in /  0 mm
18:26 2.1 °F /  -16.6 °C -0.7 °F /  -18.2 °C 1032.1 in /  34946.9 hPa NNW 2.4 mph /  3.9 km/h 5.5 mph /  8.9 km/h 82 % 0.0 in /  0 mm
18:31 2.0 °F /  -16.7 °C -0.8 °F /  -18.2 °C 1032.1 in /  34946.9 hPa North 2.3 mph /  3.7 km/h 5.5 mph /  8.9 km/h 82 % 0.0 in /  0 mm
18:36 1.9 °F /  -16.7 °C -0.8 °F /  -18.2 °C 1032.1 in /  34946.9 hPa North 2.4 mph /  3.9 km/h 5.0 mph /  8 km/h 82 % 0.0 in /  0 mm
18:41 1.7 °F /  -16.8 °C -0.9 °F /  -18.3 °C 1031.0 in /  34909.7 hPa NW 2.4 mph /  3.9 km/h 5.0 mph /  8 km/h 83 % 0.0 in /  0 mm
18:46 1.6 °F /  -16.9 °C -1.0 °F /  -18.3 °C 1031.0 in /  34909.7 hPa NW 3.4 mph /  5.5 km/h 6.4 mph /  10.3 km/h 83 % 0.0 in /  0 mm
18:51 1.5 °F /  -16.9 °C -1.1 °F /  -18.4 °C 1031.0 in /  34909.7 hPa NW 4.2 mph /  6.8 km/h 6.4 mph /  10.3 km/h 83 % 0.0 in /  0 mm
18:53 1.4 °F /  -17 °C -1.2 °F /  -18.4 °C 1031.0 in /  34909.7 hPa NW 4.0 mph /  6.4 km/h 6.4 mph /  10.3 km/h 83 % 0.0 in /  0 mm
18:58 1.3 °F /  -17.1 °C -1.3 °F /  -18.5 °C 1030.0 in /  34875.8 hPa NW 2.9 mph /  4.7 km/h 5.5 mph /  8.9 km/h 83 % 0.0 in /  0 mm
19:03 1.1 °F /  -17.2 °C -1.4 °F /  -18.6 °C 1030.0 in /  34875.8 hPa NNW 2.3 mph /  3.7 km/h 7.9 mph /  12.7 km/h 83 % 0.0 in /  0 mm
19:09 1.1 °F /  -17.2 °C -1.4 °F /  -18.6 °C 1030.0 in /  34875.8 hPa NW 2.4 mph /  3.9 km/h 7.9 mph /  12.7 km/h 83 % 0.0 in /  0 mm
19:14 1.0 °F /  -17.2 °C -1.6 °F /  -18.7 °C 1031.0 in /  34909.7 hPa WNW 1.8 mph /  2.9 km/h 4.7 mph /  7.6 km/h 83 % 0.0 in /  0 mm
19:19 1.0 °F /  -17.2 °C -1.6 °F /  -18.7 °C 1031.0 in /  34909.7 hPa NW 1.9 mph /  3.1 km/h 6.1 mph /  9.8 km/h 83 % 0.0 in /  0 mm
19:24 0.9 °F /  -17.3 °C -1.5 °F /  -18.6 °C 1031.0 in /  34909.7 hPa NW 3.2 mph /  5.1 km/h 6.9 mph /  11.1 km/h 84 % 0.0 in /  0 mm
19:28 0.9 °F /  -17.3 °C -1.5 °F /  -18.6 °C 1031.0 in /  34909.7 hPa NW 3.5 mph /  5.6 km/h 6.9 mph /  11.1 km/h 84 % 0.0 in /  0 mm
19:34 0.8 °F /  -17.3 °C -1.6 °F /  -18.7 °C 1031.0 in /  34909.7 hPa NW 2.9 mph /  4.7 km/h 6.4 mph /  10.3 km/h 84 % 0.0 in /  0 mm
19:39 0.7 °F /  -17.4 °C -1.7 °F /  -18.7 °C 1031.0 in /  34909.7 hPa NW 3.4 mph /  5.5 km/h 6.4 mph /  10.3 km/h 84 % 0.0 in /  0 mm
19:44 0.8 °F /  -17.3 °C -1.6 °F /  -18.7 °C 1031.0 in /  34909.7 hPa WNW 2.9 mph /  4.7 km/h 6.1 mph /  9.8 km/h 84 % 0.0 in /  0 mm
19:49 0.8 °F /  -17.3 °C -1.4 °F /  -18.6 °C 1031.0 in /  34909.7 hPa NW 2.3 mph /  3.7 km/h 6.9 mph /  11.1 km/h 85 % 0.0 in /  0 mm
19:53 0.8 °F /  -17.3 °C -1.4 °F /  -18.6 °C 1031.0 in /  34909.7 hPa NNW 2.4 mph /  3.9 km/h 6.9 mph /  11.1 km/h 85 % 0.0 in /  0 mm
19:59 0.8 °F /  -17.3 °C -1.4 °F /  -18.6 °C 1031.0 in /  34909.7 hPa NNW 1.9 mph /  3.1 km/h 5.8 mph /  9.3 km/h 85 % 0.0 in /  0 mm
20:04 0.9 °F /  -17.3 °C -1.3 °F /  -18.5 °C 1031.0 in /  34909.7 hPa NW 2.1 mph /  3.4 km/h 5.5 mph /  8.9 km/h 85 % 0.0 in /  0 mm
20:09 1.0 °F /  -17.2 °C -1.2 °F /  -18.4 °C 1031.0 in /  34909.7 hPa WNW 1.3 mph /  2.1 km/h 5.5 mph /  8.9 km/h 85 % 0.0 in /  0 mm
20:14 1.0 °F /  -17.2 °C -1.2 °F /  -18.4 °C 1032.1 in /  34946.9 hPa NNW 0.8 mph /  1.3 km/h 6.4 mph /  10.3 km/h 85 % 0.0 in /  0 mm
20:18 1.1 °F /  -17.2 °C -1.0 °F /  -18.3 °C 1032.1 in /  34946.9 hPa NNW 1.4 mph /  2.3 km/h 6.4 mph /  10.3 km/h 86 % 0.0 in /  0 mm
20:24 1.1 °F /  -17.2 °C -1.0 °F /  -18.3 °C 1032.1 in /  34946.9 hPa NW 3.1 mph /  5 km/h 6.1 mph /  9.8 km/h 86 % 0.0 in /  0 mm
20:29 1.2 °F /  -17.1 °C -0.9 °F /  -18.3 °C 1032.1 in /  34946.9 hPa NW 2.1 mph /  3.4 km/h 6.1 mph /  9.8 km/h 86 % 0.0 in /  0 mm
20:34 1.3 °F /  -17.1 °C -0.8 °F /  -18.2 °C 1032.1 in /  34946.9 hPa North 1.3 mph /  2.1 km/h 5.5 mph /  8.9 km/h 86 % 0.0 in /  0 mm
20:39 1.3 °F /  -17.1 °C -0.8 °F /  -18.2 °C 1032.1 in /  34946.9 hPa NNE 1.4 mph /  2.3 km/h 5.5 mph /  8.9 km/h 86 % 0.0 in /  0 mm
20:44 1.4 °F /  -17 °C -0.6 °F /  -18.1 °C 1032.1 in /  34946.9 hPa NW 1.1 mph /  1.8 km/h 5.0 mph /  8 km/h 87 % 0.0 in /  0 mm
20:49 1.5 °F /  -16.9 °C -0.4 °F /  -18 °C 1032.1 in /  34946.9 hPa WNW 1.4 mph /  2.3 km/h 5.0 mph /  8 km/h 87 % 0.0 in /  0 mm
20:54 1.6 °F /  -16.9 °C -0.3 °F /  -17.9 °C 1032.1 in /  34946.9 hPa NW 2.1 mph /  3.4 km/h 4.0 mph /  6.4 km/h 87 % 0.0 in /  0 mm
20:59 1.6 °F /  -16.9 °C -0.3 °F /  -17.9 °C 1032.1 in /  34946.9 hPa NW 1.6 mph /  2.6 km/h 4.0 mph /  6.4 km/h 87 % 0.0 in /  0 mm
21:04 1.6 °F /  -16.9 °C -0.3 °F /  -17.9 °C 1032.1 in /  34946.9 hPa East 0.5 mph /  0.8 km/h 2.6 mph /  4.2 km/h 87 % 0.0 in /  0 mm
21:09 1.7 °F /  -16.8 °C -0.1 °F /  -17.8 °C 1032.1 in /  34946.9 hPa WNW 0.3 mph /  0.5 km/h 4.3 mph /  6.9 km/h 88 % 0.0 in /  0 mm
21:14 1.7 °F /  -16.8 °C -0.1 °F /  -17.8 °C 1032.1 in /  34946.9 hPa NW 0.8 mph /  1.3 km/h 4.3 mph /  6.9 km/h 88 % 0.0 in /  0 mm
21:19 1.8 °F /  -16.8 °C 0.0 °F /  -17.8 °C 1032.1 in /  34946.9 hPa NNW 0.5 mph /  0.8 km/h 3.2 mph /  5.1 km/h 88 % 0.0 in /  0 mm
21:24 1.8 °F /  -16.8 °C 0.0 °F /  -17.8 °C 1032.1 in /  34946.9 hPa Calm     88 % 0.0 in /  0 mm
21:29 1.8 °F /  -16.8 °C 0.0 °F /  -17.8 °C 1033.1 in /  34980.8 hPa Calm     88 % 0.0 in /  0 mm
21:34 1.9 °F /  -16.7 °C 0.1 °F /  -17.7 °C 1033.1 in /  34980.8 hPa Calm     88 % 0.0 in /  0 mm
21:39 2.0 °F /  -16.7 °C 0.2 °F /  -17.7 °C 1033.1 in /  34980.8 hPa Calm     88 % 0.0 in /  0 mm
21:44 2.0 °F /  -16.7 °C 0.2 °F /  -17.7 °C 1033.1 in /  34980.8 hPa Calm     88 % 0.0 in /  0 mm
21:49 2.1 °F /  -16.6 °C 0.3 °F /  -17.6 °C 1033.1 in /  34980.8 hPa Calm     88 % 0.0 in /  0 mm
21:54 2.1 °F /  -16.6 °C 0.5 °F /  -17.5 °C 1033.1 in /  34980.8 hPa Calm     89 % 0.0 in /  0 mm
21:59 2.2 °F /  -16.6 °C 0.6 °F /  -17.4 °C 1033.1 in /  34980.8 hPa Calm     89 % 0.0 in /  0 mm
22:04 2.2 °F /  -16.6 °C 0.6 °F /  -17.4 °C 1033.1 in /  34980.8 hPa Calm     89 % 0.0 in /  0 mm
22:09 2.3 °F /  -16.5 °C 0.7 °F /  -17.4 °C 1033.1 in /  34980.8 hPa Calm     89 % 0.0 in /  0 mm
22:14 2.3 °F /  -16.5 °C 0.7 °F /  -17.4 °C 1033.1 in /  34980.8 hPa Calm     89 % 0.0 in /  0 mm
22:19 2.3 °F /  -16.5 °C 0.7 °F /  -17.4 °C 1033.1 in /  34980.8 hPa Calm   2.6 mph /  4.2 km/h 89 % 0.0 in /  0 mm
22:24 2.4 °F /  -16.4 °C 0.8 °F /  -17.3 °C 1033.1 in /  34980.8 hPa Calm   2.6 mph /  4.2 km/h 89 % 0.0 in /  0 mm
22:29 2.4 °F /  -16.4 °C 0.8 °F /  -17.3 °C 1032.1 in /  34946.9 hPa East 1.0 mph /  1.6 km/h 5.5 mph /  8.9 km/h 89 % 0.0 in /  0 mm
22:34 2.5 °F /  -16.4 °C 1.0 °F /  -17.2 °C 1032.1 in /  34946.9 hPa ENE 1.9 mph /  3.1 km/h 5.5 mph /  8.9 km/h 90 % 0.0 in /  0 mm
22:39 2.6 °F /  -16.3 °C 1.1 °F /  -17.2 °C 1032.1 in /  34946.9 hPa NE 0.8 mph /  1.3 km/h 4.0 mph /  6.4 km/h 90 % 0.0 in /  0 mm
22:44 2.6 °F /  -16.3 °C 1.1 °F /  -17.2 °C 1032.1 in /  34946.9 hPa Calm   4.0 mph /  6.4 km/h 90 % 0.0 in /  0 mm
22:49 2.7 °F /  -16.3 °C 1.2 °F /  -17.1 °C 1032.1 in /  34946.9 hPa East 0.3 mph /  0.5 km/h 4.0 mph /  6.4 km/h 90 % 0.0 in /  0 mm
22:54 2.7 °F /  -16.3 °C 1.2 °F /  -17.1 °C 1032.1 in /  34946.9 hPa East 0.3 mph /  0.5 km/h 3.5 mph /  5.6 km/h 90 % 0.0 in /  0 mm
22:59 2.7 °F /  -16.3 °C 1.2 °F /  -17.1 °C 1032.1 in /  34946.9 hPa Calm   2.6 mph /  4.2 km/h 90 % 0.0 in /  0 mm
23:04 2.7 °F /  -16.3 °C 1.2 °F /  -17.1 °C 1032.1 in /  34946.9 hPa East 0.3 mph /  0.5 km/h 3.2 mph /  5.1 km/h 90 % 0.0 in /  0 mm
23:09 2.8 °F /  -16.2 °C 1.3 °F /  -17.1 °C 1032.1 in /  34946.9 hPa East 1.0 mph /  1.6 km/h 4.0 mph /  6.4 km/h 90 % 0.0 in /  0 mm
23:14 2.8 °F /  -16.2 °C 1.5 °F /  -16.9 °C 1032.1 in /  34946.9 hPa East 0.8 mph /  1.3 km/h 4.0 mph /  6.4 km/h 91 % 0.0 in /  0 mm
23:19 2.8 °F /  -16.2 °C 1.5 °F /  -16.9 °C 1032.1 in /  34946.9 hPa East 1.6 mph /  2.6 km/h 5.5 mph /  8.9 km/h 91 % 0.0 in /  0 mm
23:24 2.9 °F /  -16.2 °C 1.6 °F /  -16.9 °C 1032.1 in /  34946.9 hPa ESE 2.7 mph /  4.3 km/h 5.5 mph /  8.9 km/h 91 % 0.0 in /  0 mm
23:29 2.9 °F /  -16.2 °C 1.6 °F /  -16.9 °C 1033.1 in /  34980.8 hPa ESE 2.6 mph /  4.2 km/h 5.0 mph /  8 km/h 91 % 0.0 in /  0 mm
23:34 2.9 °F /  -16.2 °C 1.6 °F /  -16.9 °C 1033.1 in /  34980.8 hPa ESE 2.9 mph /  4.7 km/h 5.0 mph /  8 km/h 91 % 0.0 in /  0 mm
23:39 3.0 °F /  -16.1 °C 1.7 °F /  -16.8 °C 1033.1 in /  34980.8 hPa ESE 3.7 mph /  6 km/h 5.0 mph /  8 km/h 91 % 0.0 in /  0 mm
23:44 3.0 °F /  -16.1 °C 1.7 °F /  -16.8 °C 1033.1 in /  34980.8 hPa East 3.4 mph /  5.5 km/h 5.5 mph /  8.9 km/h 91 % 0.0 in /  0 mm
23:49 3.0 °F /  -16.1 °C 1.7 °F /  -16.8 °C 1033.1 in /  34980.8 hPa ESE 3.4 mph /  5.5 km/h 6.4 mph /  10.3 km/h 91 % 0.0 in /  0 mm
23:54 3.0 °F /  -16.1 °C 1.7 °F /  -16.8 °C 1033.1 in /  34980.8 hPa ESE 3.2 mph /  5.1 km/h 6.4 mph /  10.3 km/h 91 % 0.0 in /  0 mm
23:59 3.0 °F /  -16.1 °C 1.7 °F /  -16.8 °C 1032.1 in /  34946.9 hPa ESE 2.4 mph /  3.9 km/h 6.4 mph /  10.3 km/h 91 % 0.0 in /  0 mm
Vremenska postaja Senovo
Podatki zbrani iz Weather Underground - 3 mb

Script developed by  Jim McMurry - jmcmurry@mwt.net Adapted for the template by  Wim van der Kuil - Leuven-Template.eu

Vremenski podatki so objavljeni na:

European Weather Network

WeatherCloud

Weather Underground

AWEKAS

HAMweather, WeatherForYou, PWS Weather

MapView

Geostik

Slovenia weather network

Oprema, ki se uporablja:

Vremenski program
Cumulus

Vremenski server
Asus

Cumulus

Asus